sensor_id;sensor_type;location;lat;lon;timestamp;P1;durP1;ratioP1;P2;durP2;ratioP2
78324;SDS011;67584;51.400;6.692;2024-01-06T00:01:37;11.57;;;8.93;;
78324;SDS011;67584;51.400;6.692;2024-01-06T00:06:32;10.13;;;7.80;;
78324;SDS011;67584;51.400;6.692;2024-01-06T00:08:58;13.02;;;8.13;;
78324;SDS011;67584;51.400;6.692;2024-01-06T00:11:23;12.38;;;8.05;;
78324;SDS011;67584;51.400;6.692;2024-01-06T00:13:49;11.27;;;8.18;;
78324;SDS011;67584;51.400;6.692;2024-01-06T00:16:18;10.70;;;7.93;;
78324;SDS011;67584;51.400;6.692;2024-01-06T00:18:45;11.70;;;8.65;;
78324;SDS011;67584;51.400;6.692;2024-01-06T00:21:11;12.25;;;7.30;;
78324;SDS011;67584;51.400;6.692;2024-01-06T00:23:37;11.02;;;8.57;;
78324;SDS011;67584;51.400;6.692;2024-01-06T00:26:03;9.40;;;7.57;;
78324;SDS011;67584;51.400;6.692;2024-01-06T00:28:29;12.20;;;8.40;;
78324;SDS011;67584;51.400;6.692;2024-01-06T00:30:55;11.00;;;7.82;;
78324;SDS011;67584;51.400;6.692;2024-01-06T00:33:21;11.45;;;7.57;;
78324;SDS011;67584;51.400;6.692;2024-01-06T00:35:46;9.98;;;6.95;;
78324;SDS011;67584;51.400;6.692;2024-01-06T00:38:12;14.02;;;9.68;;
78324;SDS011;67584;51.400;6.692;2024-01-06T00:40:38;14.65;;;9.13;;
78324;SDS011;67584;51.400;6.692;2024-01-06T00:43:04;9.93;;;7.32;;
78324;SDS011;67584;51.400;6.692;2024-01-06T00:45:29;15.48;;;11.00;;
78324;SDS011;67584;51.400;6.692;2024-01-06T00:47:56;13.48;;;8.80;;
78324;SDS011;67584;51.400;6.692;2024-01-06T00:50:22;11.00;;;7.72;;
78324;SDS011;67584;51.400;6.692;2024-01-06T00:52:48;15.48;;;11.13;;
78324;SDS011;67584;51.400;6.692;2024-01-06T00:55:17;14.68;;;10.23;;
78324;SDS011;67584;51.400;6.692;2024-01-06T00:57:44;16.90;;;9.98;;
78324;SDS011;67584;51.400;6.692;2024-01-06T01:00:09;12.75;;;8.43;;
78324;SDS011;67584;51.400;6.692;2024-01-06T01:02:36;16.55;;;10.57;;
78324;SDS011;67584;51.400;6.692;2024-01-06T01:05:01;15.73;;;10.50;;
78324;SDS011;67584;51.400;6.692;2024-01-06T01:07:27;17.85;;;11.38;;
78324;SDS011;67584;51.400;6.692;2024-01-06T01:09:53;21.45;;;12.35;;
78324;SDS011;67584;51.400;6.692;2024-01-06T01:12:19;19.20;;;11.48;;
78324;SDS011;67584;51.400;6.692;2024-01-06T01:14:44;18.95;;;10.65;;
78324;SDS011;67584;51.400;6.692;2024-01-06T01:17:10;15.00;;;10.10;;
78324;SDS011;67584;51.400;6.692;2024-01-06T01:19:35;17.75;;;12.18;;
78324;SDS011;67584;51.400;6.692;2024-01-06T01:22:01;20.15;;;12.80;;
78324;SDS011;67584;51.400;6.692;2024-01-06T01:24:27;18.98;;;10.85;;
78324;SDS011;67584;51.400;6.692;2024-01-06T01:26:52;18.95;;;11.82;;
78324;SDS011;67584;51.400;6.692;2024-01-06T01:29:18;18.85;;;11.50;;
78324;SDS011;67584;51.400;6.692;2024-01-06T01:31:45;19.15;;;11.60;;
78324;SDS011;67584;51.400;6.692;2024-01-06T01:34:12;19.83;;;12.15;;
78324;SDS011;67584;51.400;6.692;2024-01-06T01:36:37;18.38;;;12.45;;
78324;SDS011;67584;51.400;6.692;2024-01-06T01:39:03;18.58;;;11.63;;
78324;SDS011;67584;51.400;6.692;2024-01-06T01:41:29;19.55;;;11.60;;
78324;SDS011;67584;51.400;6.692;2024-01-06T01:43:54;17.08;;;11.43;;
78324;SDS011;67584;51.400;6.692;2024-01-06T01:46:27;18.42;;;11.07;;
78324;SDS011;67584;51.400;6.692;2024-01-06T01:48:53;21.52;;;12.75;;
78324;SDS011;67584;51.400;6.692;2024-01-06T01:51:23;21.38;;;12.18;;
78324;SDS011;67584;51.400;6.692;2024-01-06T01:56:17;17.48;;;10.75;;
78324;SDS011;67584;51.400;6.692;2024-01-06T01:58:44;17.20;;;10.85;;
78324;SDS011;67584;51.400;6.692;2024-01-06T02:01:10;19.70;;;12.15;;
78324;SDS011;67584;51.400;6.692;2024-01-06T02:03:36;18.85;;;11.20;;
78324;SDS011;67584;51.400;6.692;2024-01-06T02:06:02;17.67;;;10.77;;
78324;SDS011;67584;51.400;6.692;2024-01-06T02:08:28;18.33;;;12.18;;
78324;SDS011;67584;51.400;6.692;2024-01-06T02:10:54;19.65;;;11.75;;
78324;SDS011;67584;51.400;6.692;2024-01-06T02:13:22;19.77;;;11.88;;
78324;SDS011;67584;51.400;6.692;2024-01-06T02:15:49;17.98;;;11.32;;
78324;SDS011;67584;51.400;6.692;2024-01-06T02:18:15;17.65;;;11.15;;
78324;SDS011;67584;51.400;6.692;2024-01-06T02:20:43;17.35;;;11.88;;
78324;SDS011;67584;51.400;6.692;2024-01-06T02:23:09;23.92;;;13.40;;
78324;SDS011;67584;51.400;6.692;2024-01-06T02:25:35;18.58;;;12.13;;
78324;SDS011;67584;51.400;6.692;2024-01-06T02:28:01;18.65;;;11.60;;
78324;SDS011;67584;51.400;6.692;2024-01-06T02:30:26;19.95;;;12.55;;
78324;SDS011;67584;51.400;6.692;2024-01-06T02:32:52;18.10;;;11.00;;
78324;SDS011;67584;51.400;6.692;2024-01-06T02:35:18;18.23;;;11.43;;
78324;SDS011;67584;51.400;6.692;2024-01-06T02:37:43;17.08;;;10.70;;
78324;SDS011;67584;51.400;6.692;2024-01-06T02:40:09;20.38;;;11.52;;
78324;SDS011;67584;51.400;6.692;2024-01-06T02:42:35;17.75;;;10.30;;
78324;SDS011;67584;51.400;6.692;2024-01-06T02:45:01;18.75;;;10.32;;
78324;SDS011;67584;51.400;6.692;2024-01-06T02:47:27;19.27;;;12.48;;
78324;SDS011;67584;51.400;6.692;2024-01-06T02:49:53;18.52;;;12.23;;
78324;SDS011;67584;51.400;6.692;2024-01-06T02:52:19;17.83;;;11.18;;
78324;SDS011;67584;51.400;6.692;2024-01-06T02:54:45;19.92;;;12.65;;
78324;SDS011;67584;51.400;6.692;2024-01-06T02:57:10;20.33;;;11.75;;
78324;SDS011;67584;51.400;6.692;2024-01-06T02:59:38;18.85;;;11.05;;
78324;SDS011;67584;51.400;6.692;2024-01-06T03:02:04;17.58;;;9.93;;
78324;SDS011;67584;51.400;6.692;2024-01-06T03:04:30;9.75;;;7.07;;
78324;SDS011;67584;51.400;6.692;2024-01-06T03:06:55;10.45;;;7.35;;
78324;SDS011;67584;51.400;6.692;2024-01-06T03:09:21;10.43;;;6.07;;
78324;SDS011;67584;51.400;6.692;2024-01-06T03:11:47;12.35;;;6.90;;
78324;SDS011;67584;51.400;6.692;2024-01-06T03:14:12;10.65;;;7.10;;
78324;SDS011;67584;51.400;6.692;2024-01-06T03:16:38;8.23;;;5.22;;
78324;SDS011;67584;51.400;6.692;2024-01-06T03:19:04;9.90;;;6.50;;
78324;SDS011;67584;51.400;6.692;2024-01-06T03:21:30;8.45;;;5.43;;
78324;SDS011;67584;51.400;6.692;2024-01-06T03:23:55;8.45;;;5.53;;
78324;SDS011;67584;51.400;6.692;2024-01-06T03:26:21;6.95;;;4.95;;
78324;SDS011;67584;51.400;6.692;2024-01-06T03:28:50;8.05;;;5.30;;
78324;SDS011;67584;51.400;6.692;2024-01-06T03:33:42;8.73;;;5.38;;
78324;SDS011;67584;51.400;6.692;2024-01-06T03:36:09;6.70;;;4.97;;
78324;SDS011;67584;51.400;6.692;2024-01-06T03:38:37;8.50;;;5.00;;
78324;SDS011;67584;51.400;6.692;2024-01-06T03:41:03;8.98;;;6.00;;
78324;SDS011;67584;51.400;6.692;2024-01-06T03:43:28;8.77;;;4.78;;
78324;SDS011;67584;51.400;6.692;2024-01-06T03:45:54;9.77;;;5.78;;
78324;SDS011;67584;51.400;6.692;2024-01-06T03:48:21;6.97;;;4.57;;
78324;SDS011;67584;51.400;6.692;2024-01-06T03:50:47;7.80;;;4.95;;
78324;SDS011;67584;51.400;6.692;2024-01-06T03:53:13;10.13;;;5.47;;
78324;SDS011;67584;51.400;6.692;2024-01-06T03:55:38;8.40;;;5.68;;
78324;SDS011;67584;51.400;6.692;2024-01-06T03:58:04;9.40;;;5.80;;
78324;SDS011;67584;51.400;6.692;2024-01-06T04:00:29;10.93;;;6.78;;
78324;SDS011;67584;51.400;6.692;2024-01-06T04:02:55;10.73;;;6.63;;
78324;SDS011;67584;51.400;6.692;2024-01-06T04:05:21;10.02;;;6.60;;
78324;SDS011;67584;51.400;6.692;2024-01-06T04:07:46;10.73;;;6.15;;
78324;SDS011;67584;51.400;6.692;2024-01-06T04:10:12;10.13;;;6.63;;
78324;SDS011;67584;51.400;6.692;2024-01-06T04:12:38;12.52;;;7.22;;
78324;SDS011;67584;51.400;6.692;2024-01-06T04:15:03;12.13;;;6.88;;
78324;SDS011;67584;51.400;6.692;2024-01-06T04:17:29;10.95;;;6.72;;
78324;SDS011;67584;51.400;6.692;2024-01-06T04:19:55;13.05;;;6.68;;
78324;SDS011;67584;51.400;6.692;2024-01-06T04:22:21;9.50;;;6.05;;
78324;SDS011;67584;51.400;6.692;2024-01-06T04:24:47;10.70;;;6.32;;
78324;SDS011;67584;51.400;6.692;2024-01-06T04:27:12;10.85;;;6.43;;
78324;SDS011;67584;51.400;6.692;2024-01-06T04:29:38;9.88;;;5.82;;
78324;SDS011;67584;51.400;6.692;2024-01-06T04:32:04;11.48;;;7.25;;
78324;SDS011;67584;51.400;6.692;2024-01-06T04:34:32;9.43;;;6.43;;
78324;SDS011;67584;51.400;6.692;2024-01-06T04:36:58;12.13;;;7.13;;
78324;SDS011;67584;51.400;6.692;2024-01-06T04:39:24;10.20;;;5.55;;
78324;SDS011;67584;51.400;6.692;2024-01-06T04:41:49;9.05;;;6.00;;
78324;SDS011;67584;51.400;6.692;2024-01-06T04:44:15;10.27;;;6.40;;
78324;SDS011;67584;51.400;6.692;2024-01-06T04:46:43;11.18;;;6.63;;
78324;SDS011;67584;51.400;6.692;2024-01-06T04:49:09;10.60;;;6.43;;
78324;SDS011;67584;51.400;6.692;2024-01-06T04:51:35;8.80;;;6.00;;
78324;SDS011;67584;51.400;6.692;2024-01-06T04:54:01;9.18;;;5.72;;
78324;SDS011;67584;51.400;6.692;2024-01-06T04:56:26;10.88;;;6.97;;
78324;SDS011;67584;51.400;6.692;2024-01-06T04:58:52;11.32;;;6.55;;
78324;SDS011;67584;51.400;6.692;2024-01-06T05:01:17;11.63;;;6.78;;
78324;SDS011;67584;51.400;6.692;2024-01-06T05:03:43;10.60;;;6.40;;
78324;SDS011;67584;51.400;6.692;2024-01-06T05:06:09;11.52;;;6.50;;
78324;SDS011;67584;51.400;6.692;2024-01-06T05:08:35;11.60;;;6.45;;
78324;SDS011;67584;51.400;6.692;2024-01-06T05:13:30;12.27;;;7.65;;
78324;SDS011;67584;51.400;6.692;2024-01-06T05:15:55;12.05;;;8.02;;
78324;SDS011;67584;51.400;6.692;2024-01-06T05:18:21;9.75;;;6.30;;
78324;SDS011;67584;51.400;6.692;2024-01-06T05:20:47;11.13;;;6.95;;
78324;SDS011;67584;51.400;6.692;2024-01-06T05:23:13;11.45;;;6.78;;
78324;SDS011;67584;51.400;6.692;2024-01-06T05:25:38;10.18;;;6.20;;
78324;SDS011;67584;51.400;6.692;2024-01-06T05:28:04;11.43;;;5.70;;
78324;SDS011;67584;51.400;6.692;2024-01-06T05:30:30;11.10;;;6.38;;
78324;SDS011;67584;51.400;6.692;2024-01-06T05:32:55;11.45;;;6.97;;
78324;SDS011;67584;51.400;6.692;2024-01-06T05:35:21;10.75;;;6.80;;
78324;SDS011;67584;51.400;6.692;2024-01-06T05:37:46;10.25;;;6.55;;
78324;SDS011;67584;51.400;6.692;2024-01-06T05:40:12;10.07;;;5.97;;
78324;SDS011;67584;51.400;6.692;2024-01-06T05:42:39;12.88;;;7.88;;
78324;SDS011;67584;51.400;6.692;2024-01-06T05:45:05;11.82;;;7.00;;
78324;SDS011;67584;51.400;6.692;2024-01-06T05:47:31;9.70;;;6.65;;
78324;SDS011;67584;51.400;6.692;2024-01-06T05:49:57;13.38;;;7.22;;
78324;SDS011;67584;51.400;6.692;2024-01-06T05:52:23;9.85;;;6.40;;
78324;SDS011;67584;51.400;6.692;2024-01-06T05:54:48;12.82;;;8.35;;
78324;SDS011;67584;51.400;6.692;2024-01-06T05:57:14;13.30;;;7.25;;
78324;SDS011;67584;51.400;6.692;2024-01-06T05:59:40;14.40;;;8.30;;
78324;SDS011;67584;51.400;6.692;2024-01-06T06:02:06;13.77;;;7.60;;
78324;SDS011;67584;51.400;6.692;2024-01-06T06:04:31;13.75;;;7.68;;
78324;SDS011;67584;51.400;6.692;2024-01-06T06:06:57;14.48;;;8.68;;
78324;SDS011;67584;51.400;6.692;2024-01-06T06:09:23;12.57;;;7.20;;
78324;SDS011;67584;51.400;6.692;2024-01-06T06:11:48;10.40;;;6.90;;
78324;SDS011;67584;51.400;6.692;2024-01-06T06:14:14;11.65;;;6.18;;
78324;SDS011;67584;51.400;6.692;2024-01-06T06:16:39;11.57;;;7.00;;
78324;SDS011;67584;51.400;6.692;2024-01-06T06:19:05;12.60;;;6.70;;
78324;SDS011;67584;51.400;6.692;2024-01-06T06:21:31;10.73;;;5.95;;
78324;SDS011;67584;51.400;6.692;2024-01-06T06:23:57;8.93;;;6.03;;
78324;SDS011;67584;51.400;6.692;2024-01-06T06:26:23;10.50;;;6.13;;
78324;SDS011;67584;51.400;6.692;2024-01-06T06:28:48;10.02;;;6.20;;
78324;SDS011;67584;51.400;6.692;2024-01-06T06:31:14;10.75;;;6.20;;
78324;SDS011;67584;51.400;6.692;2024-01-06T06:33:39;7.18;;;5.57;;
78324;SDS011;67584;51.400;6.692;2024-01-06T06:36:05;10.90;;;6.97;;
78324;SDS011;67584;51.400;6.692;2024-01-06T06:38:31;9.93;;;6.75;;
78324;SDS011;67584;51.400;6.692;2024-01-06T06:40:57;12.35;;;7.03;;
78324;SDS011;67584;51.400;6.692;2024-01-06T06:43:22;11.32;;;6.75;;
78324;SDS011;67584;51.400;6.692;2024-01-06T06:45:48;14.13;;;7.60;;
78324;SDS011;67584;51.400;6.692;2024-01-06T06:48:14;13.13;;;7.00;;
78324;SDS011;67584;51.400;6.692;2024-01-06T06:50:39;13.13;;;7.53;;
78324;SDS011;67584;51.400;6.692;2024-01-06T06:53:07;10.48;;;6.45;;
78324;SDS011;67584;51.400;6.692;2024-01-06T06:55:33;12.55;;;6.75;;
78324;SDS011;67584;51.400;6.692;2024-01-06T06:57:59;12.27;;;7.53;;
78324;SDS011;67584;51.400;6.692;2024-01-06T07:00:24;13.27;;;7.22;;
78324;SDS011;67584;51.400;6.692;2024-01-06T07:02:50;13.38;;;7.72;;
78324;SDS011;67584;51.400;6.692;2024-01-06T07:05:16;13.85;;;7.32;;
78324;SDS011;67584;51.400;6.692;2024-01-06T07:07:42;13.70;;;6.93;;
78324;SDS011;67584;51.400;6.692;2024-01-06T07:10:11;11.05;;;7.00;;
78324;SDS011;67584;51.400;6.692;2024-01-06T07:12:38;12.65;;;7.38;;
78324;SDS011;67584;51.400;6.692;2024-01-06T07:15:04;13.30;;;8.32;;
78324;SDS011;67584;51.400;6.692;2024-01-06T07:17:30;10.88;;;6.63;;
78324;SDS011;67584;51.400;6.692;2024-01-06T07:19:55;12.82;;;7.10;;
78324;SDS011;67584;51.400;6.692;2024-01-06T07:22:21;11.98;;;6.78;;
78324;SDS011;67584;51.400;6.692;2024-01-06T07:24:47;14.85;;;7.97;;
78324;SDS011;67584;51.400;6.692;2024-01-06T07:27:13;10.40;;;6.53;;
78324;SDS011;67584;51.400;6.692;2024-01-06T07:29:38;11.70;;;7.47;;
78324;SDS011;67584;51.400;6.692;2024-01-06T07:32:04;11.00;;;6.90;;
78324;SDS011;67584;51.400;6.692;2024-01-06T07:34:31;12.98;;;7.15;;
78324;SDS011;67584;51.400;6.692;2024-01-06T07:36:57;13.50;;;7.80;;
78324;SDS011;67584;51.400;6.692;2024-01-06T07:39:23;14.48;;;7.90;;
78324;SDS011;67584;51.400;6.692;2024-01-06T07:41:50;12.95;;;7.53;;
78324;SDS011;67584;51.400;6.692;2024-01-06T07:44:15;15.85;;;8.38;;
78324;SDS011;67584;51.400;6.692;2024-01-06T07:46:48;11.90;;;7.47;;
78324;SDS011;67584;51.400;6.692;2024-01-06T07:49:13;15.07;;;8.93;;
78324;SDS011;67584;51.400;6.692;2024-01-06T07:51:40;11.57;;;7.15;;
78324;SDS011;67584;51.400;6.692;2024-01-06T07:54:06;16.33;;;7.50;;
78324;SDS011;67584;51.400;6.692;2024-01-06T07:56:34;17.38;;;8.70;;
78324;SDS011;67584;51.400;6.692;2024-01-06T07:59:00;15.00;;;9.00;;
78324;SDS011;67584;51.400;6.692;2024-01-06T08:01:26;16.08;;;10.02;;
78324;SDS011;67584;51.400;6.692;2024-01-06T08:03:52;16.00;;;9.57;;
78324;SDS011;67584;51.400;6.692;2024-01-06T08:06:18;16.83;;;9.15;;
78324;SDS011;67584;51.400;6.692;2024-01-06T08:08:44;19.05;;;11.27;;
78324;SDS011;67584;51.400;6.692;2024-01-06T08:11:11;22.52;;;12.10;;
78324;SDS011;67584;51.400;6.692;2024-01-06T08:13:37;16.08;;;8.65;;
78324;SDS011;67584;51.400;6.692;2024-01-06T08:16:02;20.73;;;11.15;;
78324;SDS011;67584;51.400;6.692;2024-01-06T08:18:29;20.23;;;9.80;;
78324;SDS011;67584;51.400;6.692;2024-01-06T08:20:54;19.45;;;11.45;;
78324;SDS011;67584;51.400;6.692;2024-01-06T08:23:20;21.08;;;11.82;;
78324;SDS011;67584;51.400;6.692;2024-01-06T08:25:46;19.60;;;10.75;;
78324;SDS011;67584;51.400;6.692;2024-01-06T08:28:12;19.38;;;12.18;;
78324;SDS011;67584;51.400;6.692;2024-01-06T08:30:39;17.45;;;10.48;;
78324;SDS011;67584;51.400;6.692;2024-01-06T08:33:05;16.98;;;9.88;;
78324;SDS011;67584;51.400;6.692;2024-01-06T08:35:31;22.42;;;11.80;;
78324;SDS011;67584;51.400;6.692;2024-01-06T08:37:57;21.05;;;11.80;;
78324;SDS011;67584;51.400;6.692;2024-01-06T08:40:23;21.10;;;10.98;;
78324;SDS011;67584;51.400;6.692;2024-01-06T08:42:49;22.45;;;10.20;;
78324;SDS011;67584;51.400;6.692;2024-01-06T08:45:14;20.63;;;11.00;;
78324;SDS011;67584;51.400;6.692;2024-01-06T08:47:40;21.88;;;12.50;;
78324;SDS011;67584;51.400;6.692;2024-01-06T08:50:06;21.05;;;10.80;;
78324;SDS011;67584;51.400;6.692;2024-01-06T08:52:35;25.88;;;12.32;;
78324;SDS011;67584;51.400;6.692;2024-01-06T08:55:04;21.40;;;11.98;;
78324;SDS011;67584;51.400;6.692;2024-01-06T08:57:30;22.25;;;11.80;;
78324;SDS011;67584;51.400;6.692;2024-01-06T08:59:55;24.95;;;11.95;;
78324;SDS011;67584;51.400;6.692;2024-01-06T09:02:21;22.50;;;11.40;;
78324;SDS011;67584;51.400;6.692;2024-01-06T09:04:47;24.75;;;11.40;;
78324;SDS011;67584;51.400;6.692;2024-01-06T09:07:15;20.13;;;11.82;;
78324;SDS011;67584;51.400;6.692;2024-01-06T09:09:42;18.25;;;10.88;;
78324;SDS011;67584;51.400;6.692;2024-01-06T09:12:09;18.92;;;10.10;;
78324;SDS011;67584;51.400;6.692;2024-01-06T09:14:35;16.92;;;10.38;;
78324;SDS011;67584;51.400;6.692;2024-01-06T09:17:01;18.30;;;9.88;;
78324;SDS011;67584;51.400;6.692;2024-01-06T09:19:26;18.35;;;9.30;;
78324;SDS011;67584;51.400;6.692;2024-01-06T09:21:56;20.67;;;11.38;;
78324;SDS011;67584;51.400;6.692;2024-01-06T09:24:22;22.55;;;10.45;;
78324;SDS011;67584;51.400;6.692;2024-01-06T09:26:47;19.17;;;10.10;;
78324;SDS011;67584;51.400;6.692;2024-01-06T09:29:15;26.15;;;12.93;;
78324;SDS011;67584;51.400;6.692;2024-01-06T09:31:41;21.88;;;11.98;;
78324;SDS011;67584;51.400;6.692;2024-01-06T09:34:11;25.20;;;12.60;;
78324;SDS011;67584;51.400;6.692;2024-01-06T09:36:37;23.05;;;12.10;;
78324;SDS011;67584;51.400;6.692;2024-01-06T09:39:03;22.40;;;12.65;;
78324;SDS011;67584;51.400;6.692;2024-01-06T09:41:30;22.88;;;13.52;;
78324;SDS011;67584;51.400;6.692;2024-01-06T09:43:56;19.50;;;10.18;;
78324;SDS011;67584;51.400;6.692;2024-01-06T09:46:25;20.70;;;11.70;;
78324;SDS011;67584;51.400;6.692;2024-01-06T09:48:53;18.55;;;9.90;;
78324;SDS011;67584;51.400;6.692;2024-01-06T09:51:20;21.45;;;10.77;;
78324;SDS011;67584;51.400;6.692;2024-01-06T09:53:56;22.73;;;11.88;;
78324;SDS011;67584;51.400;6.692;2024-01-06T09:56:27;19.85;;;10.02;;
78324;SDS011;67584;51.400;6.692;2024-01-06T09:58:54;22.80;;;12.18;;
78324;SDS011;67584;51.400;6.692;2024-01-06T10:01:20;18.83;;;9.75;;
78324;SDS011;67584;51.400;6.692;2024-01-06T10:03:46;23.08;;;13.00;;
78324;SDS011;67584;51.400;6.692;2024-01-06T10:06:16;19.75;;;10.65;;
78324;SDS011;67584;51.400;6.692;2024-01-06T10:08:52;19.98;;;10.77;;
78324;SDS011;67584;51.400;6.692;2024-01-06T10:11:18;21.75;;;10.52;;
78324;SDS011;67584;51.400;6.692;2024-01-06T10:13:48;19.10;;;10.63;;
78324;SDS011;67584;51.400;6.692;2024-01-06T10:16:15;20.77;;;11.35;;
78324;SDS011;67584;51.400;6.692;2024-01-06T10:18:41;21.95;;;9.95;;
78324;SDS011;67584;51.400;6.692;2024-01-06T10:21:07;19.00;;;10.25;;
78324;SDS011;67584;51.400;6.692;2024-01-06T10:23:33;19.30;;;9.65;;
78324;SDS011;67584;51.400;6.692;2024-01-06T10:25:59;21.25;;;11.57;;
78324;SDS011;67584;51.400;6.692;2024-01-06T10:28:25;21.05;;;10.40;;
78324;SDS011;67584;51.400;6.692;2024-01-06T10:30:54;19.50;;;9.77;;
78324;SDS011;67584;51.400;6.692;2024-01-06T10:33:21;17.45;;;9.55;;
78324;SDS011;67584;51.400;6.692;2024-01-06T10:35:48;15.07;;;8.68;;
78324;SDS011;67584;51.400;6.692;2024-01-06T10:38:15;14.52;;;8.25;;
78324;SDS011;67584;51.400;6.692;2024-01-06T10:43:26;16.90;;;8.98;;
78324;SDS011;67584;51.400;6.692;2024-01-06T10:45:55;18.98;;;9.10;;
78324;SDS011;67584;51.400;6.692;2024-01-06T10:48:24;20.63;;;9.25;;
78324;SDS011;67584;51.400;6.692;2024-01-06T10:50:51;18.50;;;10.35;;
78324;SDS011;67584;51.400;6.692;2024-01-06T10:53:18;16.98;;;8.80;;
78324;SDS011;67584;51.400;6.692;2024-01-06T10:55:48;17.92;;;9.45;;
78324;SDS011;67584;51.400;6.692;2024-01-06T10:58:16;18.38;;;9.60;;
78324;SDS011;67584;51.400;6.692;2024-01-06T11:00:42;17.67;;;9.07;;
78324;SDS011;67584;51.400;6.692;2024-01-06T11:03:08;18.92;;;10.75;;
78324;SDS011;67584;51.400;6.692;2024-01-06T11:05:35;16.92;;;8.00;;
78324;SDS011;67584;51.400;6.692;2024-01-06T11:08:03;19.52;;;8.02;;
78324;SDS011;67584;51.400;6.692;2024-01-06T11:10:29;20.33;;;10.00;;
78324;SDS011;67584;51.400;6.692;2024-01-06T11:13:08;18.73;;;9.57;;
78324;SDS011;67584;51.400;6.692;2024-01-06T11:15:39;17.65;;;9.55;;
78324;SDS011;67584;51.400;6.692;2024-01-06T11:18:05;17.75;;;8.75;;
78324;SDS011;67584;51.400;6.692;2024-01-06T11:20:31;18.25;;;10.73;;
78324;SDS011;67584;51.400;6.692;2024-01-06T11:23:17;21.08;;;11.10;;
78324;SDS011;67584;51.400;6.692;2024-01-06T11:25:45;20.83;;;10.43;;
78324;SDS011;67584;51.400;6.692;2024-01-06T11:28:11;25.55;;;11.88;;
78324;SDS011;67584;51.400;6.692;2024-01-06T11:30:37;19.08;;;9.32;;
78324;SDS011;67584;51.400;6.692;2024-01-06T11:33:04;22.30;;;12.93;;
78324;SDS011;67584;51.400;6.692;2024-01-06T11:35:30;24.52;;;11.15;;
78324;SDS011;67584;51.400;6.692;2024-01-06T11:38:02;25.30;;;11.98;;
78324;SDS011;67584;51.400;6.692;2024-01-06T11:40:33;38.25;;;19.90;;
78324;SDS011;67584;51.400;6.692;2024-01-06T11:45:32;27.88;;;12.30;;
78324;SDS011;67584;51.400;6.692;2024-01-06T11:48:02;26.00;;;13.63;;
78324;SDS011;67584;51.400;6.692;2024-01-06T11:50:33;27.95;;;14.27;;
78324;SDS011;67584;51.400;6.692;2024-01-06T11:53:00;23.92;;;11.82;;
78324;SDS011;67584;51.400;6.692;2024-01-06T11:55:26;23.52;;;12.00;;
78324;SDS011;67584;51.400;6.692;2024-01-06T11:58:03;20.30;;;11.45;;
78324;SDS011;67584;51.400;6.692;2024-01-06T12:00:31;20.70;;;10.60;;
78324;SDS011;67584;51.400;6.692;2024-01-06T12:02:58;22.13;;;12.25;;
78324;SDS011;67584;51.400;6.692;2024-01-06T12:05:25;25.60;;;12.32;;
78324;SDS011;67584;51.400;6.692;2024-01-06T12:07:58;21.70;;;10.07;;
78324;SDS011;67584;51.400;6.692;2024-01-06T12:10:26;23.92;;;11.70;;
78324;SDS011;67584;51.400;6.692;2024-01-06T12:13:00;18.20;;;10.45;;
78324;SDS011;67584;51.400;6.692;2024-01-06T12:15:28;21.58;;;11.27;;
78324;SDS011;67584;51.400;6.692;2024-01-06T12:17:56;22.05;;;11.18;;
78324;SDS011;67584;51.400;6.692;2024-01-06T12:20:22;23.83;;;11.25;;
78324;SDS011;67584;51.400;6.692;2024-01-06T12:25:16;19.85;;;11.32;;
78324;SDS011;67584;51.400;6.692;2024-01-06T12:27:43;17.63;;;9.70;;
78324;SDS011;67584;51.400;6.692;2024-01-06T12:30:13;18.80;;;11.23;;
78324;SDS011;67584;51.400;6.692;2024-01-06T12:32:45;18.92;;;9.88;;
78324;SDS011;67584;51.400;6.692;2024-01-06T12:35:14;19.02;;;11.55;;
78324;SDS011;67584;51.400;6.692;2024-01-06T12:37:43;19.55;;;11.10;;
78324;SDS011;67584;51.400;6.692;2024-01-06T12:40:12;27.08;;;12.57;;
78324;SDS011;67584;51.400;6.692;2024-01-06T12:42:39;26.35;;;12.40;;
78324;SDS011;67584;51.400;6.692;2024-01-06T12:45:05;21.23;;;11.75;;
78324;SDS011;67584;51.400;6.692;2024-01-06T12:47:32;21.08;;;11.38;;
78324;SDS011;67584;51.400;6.692;2024-01-06T12:49:58;19.33;;;10.50;;
78324;SDS011;67584;51.400;6.692;2024-01-06T12:52:24;20.83;;;10.48;;
78324;SDS011;67584;51.400;6.692;2024-01-06T12:54:50;19.23;;;10.65;;
78324;SDS011;67584;51.400;6.692;2024-01-06T12:57:15;19.65;;;11.27;;
78324;SDS011;67584;51.400;6.692;2024-01-06T12:59:41;20.90;;;10.07;;
78324;SDS011;67584;51.400;6.692;2024-01-06T13:02:10;16.52;;;9.82;;
78324;SDS011;67584;51.400;6.692;2024-01-06T13:04:36;17.73;;;10.10;;
78324;SDS011;67584;51.400;6.692;2024-01-06T13:07:02;18.65;;;9.55;;
78324;SDS011;67584;51.400;6.692;2024-01-06T13:09:28;20.48;;;10.90;;
78324;SDS011;67584;51.400;6.692;2024-01-06T13:11:54;14.50;;;7.72;;
78324;SDS011;67584;51.400;6.692;2024-01-06T13:14:25;17.25;;;8.70;;
78324;SDS011;67584;51.400;6.692;2024-01-06T13:16:55;19.25;;;10.35;;
78324;SDS011;67584;51.400;6.692;2024-01-06T13:19:20;15.32;;;9.77;;
78324;SDS011;67584;51.400;6.692;2024-01-06T13:21:46;14.73;;;8.07;;
78324;SDS011;67584;51.400;6.692;2024-01-06T13:24:12;14.77;;;8.77;;
78324;SDS011;67584;51.400;6.692;2024-01-06T13:26:38;13.88;;;7.45;;
78324;SDS011;67584;51.400;6.692;2024-01-06T13:29:03;14.15;;;7.43;;
78324;SDS011;67584;51.400;6.692;2024-01-06T13:31:29;13.80;;;8.73;;
78324;SDS011;67584;51.400;6.692;2024-01-06T13:33:56;13.25;;;8.02;;
78324;SDS011;67584;51.400;6.692;2024-01-06T13:36:22;16.83;;;8.32;;
78324;SDS011;67584;51.400;6.692;2024-01-06T13:38:47;14.85;;;8.82;;
78324;SDS011;67584;51.400;6.692;2024-01-06T13:41:13;14.15;;;8.07;;
78324;SDS011;67584;51.400;6.692;2024-01-06T13:43:42;16.10;;;8.25;;
78324;SDS011;67584;51.400;6.692;2024-01-06T13:46:08;12.73;;;8.90;;
78324;SDS011;67584;51.400;6.692;2024-01-06T13:48:35;14.70;;;8.07;;
78324;SDS011;67584;51.400;6.692;2024-01-06T13:51:01;12.88;;;7.15;;
78324;SDS011;67584;51.400;6.692;2024-01-06T13:53:26;12.65;;;8.68;;
78324;SDS011;67584;51.400;6.692;2024-01-06T13:55:52;12.68;;;7.68;;
78324;SDS011;67584;51.400;6.692;2024-01-06T13:58:18;10.63;;;7.75;;
78324;SDS011;67584;51.400;6.692;2024-01-06T14:00:44;12.05;;;8.57;;
78324;SDS011;67584;51.400;6.692;2024-01-06T14:03:10;14.40;;;9.23;;
78324;SDS011;67584;51.400;6.692;2024-01-06T14:05:36;15.93;;;9.15;;
78324;SDS011;67584;51.400;6.692;2024-01-06T14:08:02;14.40;;;9.10;;
78324;SDS011;67584;51.400;6.692;2024-01-06T14:10:28;12.98;;;7.25;;
78324;SDS011;67584;51.400;6.692;2024-01-06T14:12:56;13.90;;;8.73;;
78324;SDS011;67584;51.400;6.692;2024-01-06T14:15:24;14.32;;;8.93;;
78324;SDS011;67584;51.400;6.692;2024-01-06T14:17:52;15.88;;;9.57;;
78324;SDS011;67584;51.400;6.692;2024-01-06T14:20:18;14.80;;;9.05;;
78324;SDS011;67584;51.400;6.692;2024-01-06T14:22:44;16.65;;;10.05;;
78324;SDS011;67584;51.400;6.692;2024-01-06T14:25:11;18.52;;;9.65;;
78324;SDS011;67584;51.400;6.692;2024-01-06T14:27:37;17.77;;;9.55;;
78324;SDS011;67584;51.400;6.692;2024-01-06T14:30:03;17.73;;;11.00;;
78324;SDS011;67584;51.400;6.692;2024-01-06T14:32:29;15.50;;;10.80;;
78324;SDS011;67584;51.400;6.692;2024-01-06T14:34:55;18.92;;;10.35;;
78324;SDS011;67584;51.400;6.692;2024-01-06T14:37:20;16.27;;;10.18;;
78324;SDS011;67584;51.400;6.692;2024-01-06T14:39:46;16.50;;;10.63;;
78324;SDS011;67584;51.400;6.692;2024-01-06T14:42:12;16.17;;;9.93;;
78324;SDS011;67584;51.400;6.692;2024-01-06T14:44:38;16.83;;;10.85;;